Details From DNKA - KADUNA
To DNSO - SADIQ ABUBAKAR III INTL
Flight Number -
Tags generated
Created
Modified
Stats Distance 221 nm / 410 km
Max Altitude 16,900 ft / 5,151 m
Waypoints 4
Social Downloads 2
Likes 0
Share VATSIM

Download

Looking for another format? Having issues loading an existing format? Contact us
Advertisement - Login to hide

Notes

Basic altitude profile: - Ascent Rate: 500ft/min - Ascent Speed: 140kts - Cruise Altitude: 10000ft - Cruise Speed: 180kts - Descent Rate: 500ft/min - Descent Speed: 140kts Options: - Use NATs: yes - Use PACOTS: yes - Use low airways: yes - Use high airways: yes

Route

DNKA KINDO V224 SOK DNSO

ID Type Via Altitude (ft/m) Position (lat/lon) Dist (leg/tot) Name
O DNKA APT - 0 / 0 10.69587 / 7.32014 - / 0 nm KADUNA
KINDO FIX - 16,900 / 5,151 10.37347 / 6.58592 47 / 47 nm
SOK VOR V224 (AWY-LO) 5,500 / 1,676 12.92109 / 5.22931 172 / 220 nm SOKOTO VOR-DME
O DNSO APT - 0 / 0 12.91590 / 5.20689 1 / 221 nm SADIQ ABUBAKAR III INTL

Altitude Profile

Advertisement - Login to hide

Weather


0- 5 10 15 20 25 30 35+ Temperature / °C

Clouds and Precipitation
Forecast for 2018-11-15 18:00 UTC. Updated 2 hours ago

Ground ~20,000 ft ~40,000 ft Winds

DNKA

Details ICAO DNKA (KAD)
Name KADUNA
Region Nigeria
Timezone Africa/Lagos (UTC+1.0)
Stats Elevation 2,073 ft / 632 m (AMSL)
Location 10.695900° 7.320140°
Runways 1
Magnetic Variation 0.446° W

METAR

Not found

TAF

TAF DNKA 150930Z 1512/1618 03014KT CAVOK PROB30 TEMPO 1512/1516 14007KT

Decode

Departure Runways

ID Width Length Bearing (true/mag) Surface Threshold Overrun Markings Lighting
05 197 ft / 60 m 9,860 ft / 3,005 m 49.54° / 49.99° ASPHALT 0 ft / 0 m 390 ft / 119 m PREC-APP CENTERLINE EDGE THRESHOLD ALSF-II TDZ
23 197 ft / 60 m 9,860 ft / 3,005 m 229.54° / 229.99° ASPHALT 0 ft / 0 m 390 ft / 119 m APP CENTERLINE EDGE THRESHOLD ALSF-II TDZ

DNSO

Details ICAO DNSO (SKO)
Name SADIQ ABUBAKAR III INTL
Region Nigeria
Timezone Africa/Lagos (UTC+1.0)
Stats Elevation 1,010 ft / 308 m (AMSL)
Location 12.915900° 5.206890°
Runways 1
Magnetic Variation 0.558° W

METAR

Not found

TAF

TAF DNSO 150950Z 1512/1618 16015KT CAVOK

Decode

Destination Runways

ID Width Length Bearing (true/mag) Surface Threshold Overrun Markings Lighting
08 197 ft / 60 m 9,837 ft / 2,998 m 76.61° / 77.17° ASPHALT 0 ft / 0 m 390 ft / 119 m PREC-APP CENTERLINE EDGE THRESHOLD ALSF-II
26 197 ft / 60 m 9,837 ft / 2,998 m 256.61° / 257.17° ASPHALT 0 ft / 0 m 390 ft / 119 m APP CENTERLINE EDGE THRESHOLD ALSF-II

Approach Navaids

Runway Type Ident Frequency Range Bearing (true/mag) Slope Elevation
08 DME ISK 109.50 MHz 18 nm / 33 km - - 1,010 ft / 308 m (AMSL)
08 LOC-ILS ISK 109.50 MHz 18 nm / 33 km 76.62° / 77.17 ° - 1,024 ft / 312 m (AMSL)
08 GS ISK 109.50 MHz 10 nm / 19 km 77.22° / 77.78 ° 3.00° 1,047 ft / 319 m (AMSL)

Popular Alternatives